Boo Sonier — WDG3281 — position and weather

sailwx.info

Track history (hours):
 
Tides and Currents Weather Stations Pressure Air Temp Water Temp Dewpoint Dewpoint Depression Visibility Wind Speed Wind Dir Waves Ship Positions

Boo Sonier

Owner: LeBeouf Bros. Towing, LLC, Houma, LA. More information available from US FCC via Universal Licensing System and Coast Guard Vessel Documentation Center.

Last reported at 2017-Apr-23 05:59 UTC. Time now 2017-Apr-25 00:49 UTC.
Position N 29°34' W 090°31'.

Length 21 m.

Type: Tug. MMSI: 367524420.

Date/timePositionNaut miles runAvg speedWind from/ knotsBaromVisibWave heightAir tempDewpointWater temp
2017-Apr-23 05:59N 29°34' W 090°31'2 5.1
2017-Apr-23 05:30N 29°34' W 090°34'2 4.1
2017-Apr-23 05:00N 29°35' W 090°36'3 5.2
2017-Apr-23 04:27N 29°36' W 090°39'2 4.3
2017-Apr-23 04:00N 29°36' W 090°41'1 1.6
2017-Apr-23 03:29N 29°37' W 090°42'0 0.2
2017-Apr-23 02:58N 29°37' W 090°42'0 0.0
2017-Apr-23 02:28N 29°37' W 090°42'0 0.0
2017-Apr-23 01:58N 29°37' W 090°42'0 0.0
2017-Apr-23 01:28N 29°37' W 090°42'0 0.0
2017-Apr-23 00:58N 29°37' W 090°42'0 0.0
2017-Apr-23 00:28N 29°37' W 090°42'0 0.0
2017-Apr-22 23:58N 29°37' W 090°42'0 0.0
2017-Apr-22 23:28N 29°37' W 090°42'0 0.0
2017-Apr-22 22:58N 29°37' W 090°42'0 0.0
2017-Apr-22 22:28N 29°37' W 090°42'0 0.0
2017-Apr-22 21:58N 29°37' W 090°42'0 0.0
2017-Apr-22 21:28N 29°37' W 090°42'0 0.0
2017-Apr-22 20:58N 29°37' W 090°42'0 0.0
2017-Apr-22 20:28N 29°37' W 090°42'0 0.0
2017-Apr-22 19:58N 29°37' W 090°42'0 0.0
2017-Apr-22 19:28N 29°37' W 090°42'0 0.0
2017-Apr-22 18:55N 29°37' W 090°42'0 0.0
2017-Apr-22 18:28N 29°37' W 090°42'0 0.0
2017-Apr-22 17:58N 29°37' W 090°42'0 0.0
2017-Apr-22 17:28N 29°37' W 090°42'0 0.0
2017-Apr-22 16:58N 29°37' W 090°42'0 0.0
2017-Apr-22 16:28N 29°37' W 090°42'0 0.0
2017-Apr-22 15:58N 29°37' W 090°42'0 0.0
2017-Apr-22 15:28N 29°37' W 090°42'0 0.0
2017-Apr-22 14:58N 29°37' W 090°42'0 0.0
2017-Apr-22 14:28N 29°37' W 090°42'0 0.0
2017-Apr-22 13:28N 29°37' W 090°42'0 0.0
2017-Apr-22 12:58N 29°37' W 090°42'0 0.0
2017-Apr-22 12:28N 29°37' W 090°42'0 0.0
2017-Apr-22 11:58N 29°37' W 090°42'0 0.0
2017-Apr-22 11:28N 29°37' W 090°42'0 0.0
2017-Apr-22 10:58N 29°37' W 090°42'0 0.0
2017-Apr-22 10:28N 29°37' W 090°42'0 0.0
2017-Apr-22 09:55N 29°37' W 090°42'0 0.0
2017-Apr-22 09:28N 29°37' W 090°42'0 0.0
2017-Apr-22 08:58N 29°37' W 090°42'0 0.0
2017-Apr-22 08:28N 29°37' W 090°42'0 0.0
2017-Apr-22 07:58N 29°37' W 090°42'0 0.0
2017-Apr-22 07:28N 29°37' W 090°42'0 0.0
2017-Apr-22 06:58N 29°37' W 090°42'0 0.0
2017-Apr-22 06:28N 29°37' W 090°42'0 0.0
2017-Apr-22 05:58N 29°37' W 090°42'0 0.0
2017-Apr-22 05:28N 29°37' W 090°42'0 0.0
2017-Apr-22 04:58N 29°37' W 090°42'0 0.0
2017-Apr-22 04:29N 29°37' W 090°42'0 0.2
2017-Apr-22 03:58N 29°37' W 090°42'0 0.5
2017-Apr-22 03:28N 29°37' W 090°42'0 0.0
2017-Apr-22 02:58N 29°37' W 090°41'1 3.0
2017-Apr-22 02:30N 29°36' W 090°40'3 5.9
2017-Apr-22 02:00N 29°35' W 090°37'1 2.1
2017-Apr-22 01:29N 29°35' W 090°36'0 0.7
2017-Apr-22 00:58N 29°34' W 090°36'0 0.0
2017-Apr-22 00:28N 29°34' W 090°36'0 0.0
2017-Apr-21 23:58N 29°34' W 090°36'0 0.8
2017-Apr-21 23:30N 29°35' W 090°36'2 4.6
2017-Apr-21 23:00N 29°34' W 090°33'  
2017-Apr-14 16:13N 29°34' W 090°31'1 5.2
2017-Apr-14 16:00N 29°34' W 090°33'2 3.4
2017-Apr-14 15:30N 29°34' W 090°34'1 2.0
2017-Apr-14 14:57N 29°35' W 090°36'0 0.4
2017-Apr-14 14:27N 29°35' W 090°36'1 1.0
2017-Apr-14 13:30N 29°35' W 090°37'3 5.7
2017-Apr-14 13:00N 29°36' W 090°40'2 4.4
2017-Apr-14 12:30N 29°37' W 090°42'2 4.6
2017-Apr-14 12:00N 29°35' W 090°43'2 4.8
2017-Apr-14 11:30N 29°33' W 090°45'2 4.3
2017-Apr-14 11:00N 29°32' W 090°47'4 6.8
2017-Apr-14 10:21N 29°32' W 090°52'2 6.8
2017-Apr-14 10:00N 29°33' W 090°55'3 6.3
2017-Apr-14 09:29N 29°35' W 090°58'  
Track history (hours):
 
Tides and Currents Weather Stations Pressure Air Temp Water Temp Dewpoint Dewpoint Depression Visibility Wind Speed Wind Dir Waves Ship Positions

Boo Sonier

Owner: LeBeouf Bros. Towing, LLC, Houma, LA. More information available from US FCC via Universal Licensing System and Coast Guard Vessel Documentation Center.

Last reported at 2017-Apr-23 05:59 UTC. Time now 2017-Apr-25 00:49 UTC.
Position N 29°34' W 090°31'.

Length 21 m.

Type: Tug. MMSI: 367524420.

Date/timePositionNaut miles runAvg speedWind from/ knotsBaromVisibWave heightAir tempDewpointWater temp
2017-Apr-23 05:59N 29°34' W 090°31'2 5.1
2017-Apr-23 05:30N 29°34' W 090°34'2 4.1
2017-Apr-23 05:00N 29°35' W 090°36'3 5.2
2017-Apr-23 04:27N 29°36' W 090°39'2 4.3
2017-Apr-23 04:00N 29°36' W 090°41'1 1.6
2017-Apr-23 03:29N 29°37' W 090°42'0 0.2
2017-Apr-23 02:58N 29°37' W 090°42'0 0.0
2017-Apr-23 02:28N 29°37' W 090°42'0 0.0
2017-Apr-23 01:58N 29°37' W 090°42'0 0.0
2017-Apr-23 01:28N 29°37' W 090°42'0 0.0
2017-Apr-23 00:58N 29°37' W 090°42'0 0.0
2017-Apr-23 00:28N 29°37' W 090°42'0 0.0
2017-Apr-22 23:58N 29°37' W 090°42'0 0.0
2017-Apr-22 23:28N 29°37' W 090°42'0 0.0
2017-Apr-22 22:58N 29°37' W 090°42'0 0.0
2017-Apr-22 22:28N 29°37' W 090°42'0 0.0
2017-Apr-22 21:58N 29°37' W 090°42'0 0.0
2017-Apr-22 21:28N 29°37' W 090°42'0 0.0
2017-Apr-22 20:58N 29°37' W 090°42'0 0.0
2017-Apr-22 20:28N 29°37' W 090°42'0 0.0
2017-Apr-22 19:58N 29°37' W 090°42'0 0.0
2017-Apr-22 19:28N 29°37' W 090°42'0 0.0
2017-Apr-22 18:55N 29°37' W 090°42'0 0.0
2017-Apr-22 18:28N 29°37' W 090°42'0 0.0
2017-Apr-22 17:58N 29°37' W 090°42'0 0.0
2017-Apr-22 17:28N 29°37' W 090°42'0 0.0
2017-Apr-22 16:58N 29°37' W 090°42'0 0.0
2017-Apr-22 16:28N 29°37' W 090°42'0 0.0
2017-Apr-22 15:58N 29°37' W 090°42'0 0.0
2017-Apr-22 15:28N 29°37' W 090°42'0 0.0
2017-Apr-22 14:58N 29°37' W 090°42'0 0.0
2017-Apr-22 14:28N 29°37' W 090°42'0 0.0
2017-Apr-22 13:28N 29°37' W 090°42'0 0.0
2017-Apr-22 12:58N 29°37' W 090°42'0 0.0
2017-Apr-22 12:28N 29°37' W 090°42'0 0.0
2017-Apr-22 11:58N 29°37' W 090°42'0 0.0
2017-Apr-22 11:28N 29°37' W 090°42'0 0.0
2017-Apr-22 10:58N 29°37' W 090°42'0 0.0
2017-Apr-22 10:28N 29°37' W 090°42'0 0.0
2017-Apr-22 09:55N 29°37' W 090°42'0 0.0
2017-Apr-22 09:28N 29°37' W 090°42'0 0.0
2017-Apr-22 08:58N 29°37' W 090°42'0 0.0
2017-Apr-22 08:28N 29°37' W 090°42'0 0.0
2017-Apr-22 07:58N 29°37' W 090°42'0 0.0
2017-Apr-22 07:28N 29°37' W 090°42'0 0.0
2017-Apr-22 06:58N 29°37' W 090°42'0 0.0
2017-Apr-22 06:28N 29°37' W 090°42'0 0.0
2017-Apr-22 05:58N 29°37' W 090°42'0 0.0
2017-Apr-22 05:28N 29°37' W 090°42'0 0.0
2017-Apr-22 04:58N 29°37' W 090°42'0 0.0
2017-Apr-22 04:29N 29°37' W 090°42'0 0.2
2017-Apr-22 03:58N 29°37' W 090°42'0 0.5
2017-Apr-22 03:28N 29°37' W 090°42'0 0.0
2017-Apr-22 02:58N 29°37' W 090°41'1 3.0
2017-Apr-22 02:30N 29°36' W 090°40'3 5.9
2017-Apr-22 02:00N 29°35' W 090°37'1 2.1
2017-Apr-22 01:29N 29°35' W 090°36'0 0.7
2017-Apr-22 00:58N 29°34' W 090°36'0 0.0
2017-Apr-22 00:28N 29°34' W 090°36'0 0.0
2017-Apr-21 23:58N 29°34' W 090°36'0 0.8
2017-Apr-21 23:30N 29°35' W 090°36'2 4.6
2017-Apr-21 23:00N 29°34' W 090°33'  
2017-Apr-14 16:13N 29°34' W 090°31'1 5.2
2017-Apr-14 16:00N 29°34' W 090°33'2 3.4
2017-Apr-14 15:30N 29°34' W 090°34'1 2.0
2017-Apr-14 14:57N 29°35' W 090°36'0 0.4
2017-Apr-14 14:27N 29°35' W 090°36'1 1.0
2017-Apr-14 13:30N 29°35' W 090°37'3 5.7
2017-Apr-14 13:00N 29°36' W 090°40'2 4.4
2017-Apr-14 12:30N 29°37' W 090°42'2 4.6
2017-Apr-14 12:00N 29°35' W 090°43'2 4.8
2017-Apr-14 11:30N 29°33' W 090°45'2 4.3
2017-Apr-14 11:00N 29°32' W 090°47'4 6.8
2017-Apr-14 10:21N 29°32' W 090°52'2 6.8
2017-Apr-14 10:00N 29°33' W 090°55'3 6.3
2017-Apr-14 09:29N 29°35' W 090°58'  

Dump ship's entire track history